Time;durP1;ratioP1;P1;durP2;ratioP2;P2;SDS_P1;SDS_P2;PMS_P1;PMS_P2;Temp;Humidity;BMP_temperature;BMP_pressure;BME280_temperature;BME280_humidity;BME280_pressure;Samples;Min_cycle;Max_cycle;Signal;HPM_P1;HPM_P2
2022/06/15 00:01:14;;;;;;;6.03;3.20;;;;;;;;;;5022865;28;97107;-72
2022/06/15 00:03:40;;;;;;;4.50;2.60;;;;;;;;;;5009898;28;95728;-72
2022/06/15 00:06:09;;;;;;;4.93;2.50;;;;;;;;;;5009545;28;97798;-72
2022/06/15 00:08:36;;;;;;;5.93;3.15;;;;;;;;;;5026158;28;95196;-72
2022/06/15 00:11:04;;;;;;;4.95;2.58;;;;;;;;;;5032334;27;96729;-72
2022/06/15 00:13:30;;;;;;;4.28;2.63;;;;;;;;;;5030948;27;95245;-72
2022/06/15 00:15:56;;;;;;;4.28;2.50;;;;;;;;;;5032200;27;96584;-72
2022/06/15 00:18:25;;;;;;;5.70;2.70;;;;;;;;;;5031237;28;97318;-72
2022/06/15 00:20:51;;;;;;;3.97;2.83;;;;;;;;;;5029743;27;95294;-72
2022/06/15 00:23:17;;;;;;;4.10;2.60;;;;;;;;;;5031994;28;96903;-72
2022/06/15 00:25:47;;;;;;;5.30;2.80;;;;;;;;;;5032461;28;97304;-72
2022/06/15 00:28:14;;;;;;;4.97;2.60;;;;;;;;;;5026525;28;96058;-72
2022/06/15 00:30:40;;;;;;;5.35;2.63;;;;;;;;;;5013061;28;96838;-72
2022/06/15 00:33:06;;;;;;;6.00;2.42;;;;;;;;;;5015404;28;96176;-73
2022/06/15 00:35:33;;;;;;;4.65;2.80;;;;;;;;;;5011419;28;96862;-72
2022/06/15 00:37:59;;;;;;;4.45;2.55;;;;;;;;;;5017879;28;97418;-72
2022/06/15 00:40:25;;;;;;;5.95;2.97;;;;;;;;;;5026124;27;95509;-72
2022/06/15 00:42:51;;;;;;;5.38;3.00;;;;;;;;;;5012103;28;97260;-72
2022/06/15 00:45:18;;;;;;;4.35;2.50;;;;;;;;;;5031696;28;97245;-72
2022/06/15 00:47:45;;;;;;;4.93;3.00;;;;;;;;;;5031389;27;95522;-72
2022/06/15 00:50:14;;;;;;;4.00;2.40;;;;;;;;;;5031084;27;95871;-72
2022/06/15 00:52:40;;;;;;;4.30;2.88;;;;;;;;;;5032030;27;96356;-72
2022/06/15 00:55:11;;;;;;;4.10;2.50;;;;;;;;;;5017515;28;95787;-72
2022/06/15 00:57:37;;;;;;;5.38;2.90;;;;;;;;;;5017962;28;97426;-72
2022/06/15 01:00:05;;;;;;;5.13;2.90;;;;;;;;;;5032270;27;95231;-72
2022/06/15 01:02:36;;;;;;;3.95;2.58;;;;;;;;;;5031318;28;96886;-72
2022/06/15 01:05:07;;;;;;;6.80;3.23;;;;;;;;;;5031910;28;97508;-72
2022/06/15 01:07:48;;;;;;;9.10;2.90;;;;;;;;;;5030333;28;97449;-72
2022/06/15 01:10:30;;;;;;;5.60;2.90;;;;;;;;;;5013686;27;95808;-72
2022/06/15 01:13:02;;;;;;;12.00;2.97;;;;;;;;;;5012048;28;97337;-72
2022/06/15 01:15:31;;;;;;;4.40;2.55;;;;;;;;;;5011507;28;95572;-72
2022/06/15 01:18:08;;;;;;;5.68;2.90;;;;;;;;;;5033905;27;96141;-72
2022/06/15 01:20:37;;;;;;;5.65;2.88;;;;;;;;;;5031781;27;95207;-72
2022/06/15 01:23:18;;;;;;;3.90;2.40;;;;;;;;;;5032087;28;96909;-72
2022/06/15 01:25:58;;;;;;;9.82;3.03;;;;;;;;;;5027363;28;96413;-72
2022/06/15 01:28:32;;;;;;;3.97;2.42;;;;;;;;;;5029653;27;95458;-72
2022/06/15 01:31:01;;;;;;;5.53;2.70;;;;;;;;;;5029699;28;96777;-72
2022/06/15 01:33:36;;;;;;;5.50;3.17;;;;;;;;;;5027163;28;97315;-72
2022/06/15 01:36:05;;;;;;;5.25;2.55;;;;;;;;;;5011622;28;95215;-69
2022/06/15 01:38:40;;;;;;;6.10;2.33;;;;;;;;;;5011396;28;96759;-73
2022/06/15 01:41:10;;;;;;;4.32;2.30;;;;;;;;;;5014705;28;97029;-73
2022/06/15 01:43:40;;;;;;;4.68;2.60;;;;;;;;;;5016784;28;96907;-73
2022/06/15 01:46:07;;;;;;;3.13;2.15;;;;;;;;;;5030313;27;97489;-73
2022/06/15 01:48:35;;;;;;;6.75;2.58;;;;;;;;;;5030151;27;95330;-72
2022/06/15 01:51:04;;;;;;;4.78;2.67;;;;;;;;;;5030598;28;96787;-72
2022/06/15 01:53:46;;;;;;;4.40;2.45;;;;;;;;;;5029252;27;96341;-72
2022/06/15 01:56:18;;;;;;;5.68;2.92;;;;;;;;;;5029732;27;95368;-73
2022/06/15 01:58:47;;;;;;;3.75;2.35;;;;;;;;;;5031425;27;96548;-73
2022/06/15 02:01:20;;;;;;;4.57;2.90;;;;;;;;;;5032673;28;97775;-73
2022/06/15 02:03:54;;;;;;;5.65;3.15;;;;;;;;;;5030655;28;97590;-73
2022/06/15 02:06:27;;;;;;;4.97;3.15;;;;;;;;;;5030634;27;97103;-73
2022/06/15 02:08:59;;;;;;;5.90;2.70;;;;;;;;;;5029870;27;95341;-73
2022/06/15 02:11:26;;;;;;;;;;;;;;;;;;5032237;27;96722;-73
2022/06/15 02:14:05;;;;;;;4.32;2.70;;;;;;;;;;5029795;28;126803;-73
2022/06/15 02:16:35;;;;;;;4.90;2.55;;;;;;;;;;5030071;27;95272;-72
2022/06/15 02:19:03;;;;;;;4.15;2.70;;;;;;;;;;5031283;27;96749;-73
2022/06/15 02:21:30;;;;;;;4.68;2.72;;;;;;;;;;5030275;28;97398;-72
2022/06/15 02:23:57;;;;;;;4.60;2.95;;;;;;;;;;5031853;27;95751;-72
2022/06/15 02:26:29;;;;;;;6.30;2.90;;;;;;;;;;5028896;28;97312;-73
2022/06/15 02:28:59;;;;;;;5.25;2.70;;;;;;;;;;5030627;28;95186;-73
2022/06/15 02:31:26;;;;;;;4.63;2.67;;;;;;;;;;5030632;27;95974;-73
2022/06/15 02:33:54;;;;;;;3.97;2.50;;;;;;;;;;5029794;27;96122;-73
2022/06/15 02:36:21;;;;;;;4.80;2.85;;;;;;;;;;5029942;27;95202;-72
2022/06/15 02:38:51;;;;;;;7.30;3.10;;;;;;;;;;5027968;27;95981;-72
2022/06/15 02:41:19;;;;;;;5.53;2.95;;;;;;;;;;5026853;28;97431;-72
2022/06/15 02:43:47;;;;;;;4.45;2.70;;;;;;;;;;5030757;27;95454;-72
2022/06/15 02:46:14;;;;;;;4.85;3.08;;;;;;;;;;5033691;27;96731;-72
2022/06/15 02:48:41;;;;;;;4.72;2.92;;;;;;;;;;5028844;28;95380;-73
2022/06/15 02:51:11;;;;;;;5.05;2.92;;;;;;;;;;5029271;27;95541;-73
2022/06/15 02:53:39;;;;;;;6.00;2.97;;;;;;;;;;5029404;28;97406;-73
2022/06/15 02:56:06;;;;;;;4.70;2.97;;;;;;;;;;5028449;28;95471;-73
2022/06/15 02:58:34;;;;;;;4.63;2.72;;;;;;;;;;5030216;27;96748;-73
2022/06/15 03:01:01;;;;;;;4.70;2.35;;;;;;;;;;5030441;27;97488;-72
2022/06/15 03:03:28;;;;;;;4.95;2.90;;;;;;;;;;5029917;28;95346;-72
2022/06/15 03:05:54;;;;;;;4.03;2.75;;;;;;;;;;5020752;28;96724;-72
2022/06/15 20:18:28;;;;;;;3.25;2.03;;;;;;;;;;5045714;27;95557;-72
2022/06/15 20:20:55;;;;;;;4.57;2.40;;;;;;;;;;5044696;27;97244;-77
2022/06/15 20:23:23;;;;;;;3.92;2.30;;;;;;;;;;5041615;27;95638;-73
2022/06/15 20:25:51;;;;;;;3.80;2.38;;;;;;;;;;5042790;27;96791;-74
2022/06/15 20:28:21;;;;;;;3.92;2.13;;;;;;;;;;5043497;27;97187;-73
2022/06/15 20:30:47;;;;;;;5.57;2.40;;;;;;;;;;5045177;27;95802;-73
2022/06/15 20:33:13;;;;;;;4.05;2.55;;;;;;;;;;5043447;27;96618;-72
2022/06/15 20:35:40;;;;;;;3.17;2.30;;;;;;;;;;5045375;27;98166;-72
2022/06/15 20:38:06;;;;;;;5.32;2.50;;;;;;;;;;5047742;27;95321;-72
2022/06/15 20:40:35;;;;;;;3.88;2.25;;;;;;;;;;5044755;27;96180;-72
2022/06/15 20:43:02;;;;;;;7.85;2.58;;;;;;;;;;5043296;27;96133;-76
2022/06/15 20:45:30;;;;;;;3.50;2.03;;;;;;;;;;5043748;27;96601;-73
2022/06/15 20:47:59;;;;;;;4.18;2.53;;;;;;;;;;5045067;27;97525;-72
2022/06/15 20:50:25;;;;;;;3.80;2.20;;;;;;;;;;5023471;27;95329;-72
2022/06/15 20:52:52;;;;;;;4.38;2.38;;;;;;;;;;5035947;27;96608;-73
2022/06/15 20:55:18;;;;;;;5.53;2.40;;;;;;;;;;5043037;27;97478;-72
2022/06/15 20:57:45;;;;;;;6.43;2.53;;;;;;;;;;5043909;27;96659;-72
2022/06/15 21:00:11;;;;;;;2.92;2.20;;;;;;;;;;5039385;27;97184;-72
2022/06/15 21:02:38;;;;;;;3.97;2.35;;;;;;;;;;5043148;27;95173;-72
2022/06/15 21:05:04;;;;;;;2.97;1.90;;;;;;;;;;5041968;27;97562;-72
2022/06/15 21:07:31;;;;;;;4.95;2.10;;;;;;;;;;5052320;27;97408;-72
2022/06/15 21:18:27;;;;;;;3.90;2.28;;;;;;;;;;5045228;27;95432;-73
2022/06/15 21:20:55;;;;;;;5.43;2.42;;;;;;;;;;5043574;27;96887;-72
2022/06/15 21:23:21;;;;;;;6.63;2.00;;;;;;;;;;5046946;27;97761;-73
2022/06/15 21:25:48;;;;;;;3.83;2.20;;;;;;;;;;5045156;27;96815;-73
2022/06/15 21:28:15;;;;;;;3.78;2.15;;;;;;;;;;5038095;27;97620;-73
2022/06/15 21:30:44;;;;;;;4.40;2.10;;;;;;;;;;5028923;27;95210;-73
2022/06/15 21:33:12;;;;;;;3.25;1.95;;;;;;;;;;5030596;28;96926;-73
2022/06/15 21:35:39;;;;;;;3.67;2.25;;;;;;;;;;5028690;28;97507;-73
2022/06/15 21:38:05;;;;;;;2.53;1.83;;;;;;;;;;5030477;28;95796;-73
2022/06/15 21:40:32;;;;;;;3.88;2.25;;;;;;;;;;5028430;27;97314;-72
2022/06/15 21:43:01;;;;;;;3.08;1.95;;;;;;;;;;5030709;28;97244;-72
2022/06/15 21:45:27;;;;;;;3.85;2.20;;;;;;;;;;5034556;27;95747;-73
2022/06/15 21:47:54;;;;;;;3.63;2.15;;;;;;;;;;5030719;28;97276;-73
2022/06/15 21:50:21;;;;;;;5.25;2.40;;;;;;;;;;5030646;27;96265;-72
2022/06/15 21:52:49;;;;;;;3.47;2.15;;;;;;;;;;5031669;27;96763;-72
2022/06/15 21:55:15;;;;;;;3.45;2.15;;;;;;;;;;5030658;27;97668;-72
2022/06/15 21:57:41;;;;;;;3.38;2.20;;;;;;;;;;5031598;28;95479;-72
2022/06/15 22:00:09;;;;;;;5.07;2.70;;;;;;;;;;5030599;27;96665;-72
2022/06/15 22:02:36;;;;;;;4.38;2.20;;;;;;;;;;5029497;28;97295;-73
2022/06/15 22:05:03;;;;;;;6.55;2.40;;;;;;;;;;5030426;28;96415;-73
2022/06/15 22:07:29;;;;;;;4.45;2.22;;;;;;;;;;5032740;28;97390;-72
2022/06/15 22:09:56;;;;;;;4.18;2.28;;;;;;;;;;5030663;27;95271;-72
2022/06/15 22:12:22;;;;;;;6.45;2.40;;;;;;;;;;5030180;27;96846;-73
2022/06/15 22:14:51;;;;;;;3.78;2.05;;;;;;;;;;5030650;28;97246;-73
2022/06/15 22:17:18;;;;;;;3.75;2.33;;;;;;;;;;5028042;27;95334;-73
2022/06/15 22:19:44;;;;;;;4.32;2.45;;;;;;;;;;5031144;27;96251;-72
2022/06/15 22:22:10;;;;;;;5.45;2.30;;;;;;;;;;5029160;27;97280;-72
2022/06/15 22:24:37;;;;;;;3.10;2.25;;;;;;;;;;5030390;27;95502;-72
2022/06/15 22:27:04;;;;;;;3.30;2.20;;;;;;;;;;5031004;28;96764;-72
2022/06/15 22:29:30;;;;;;;4.32;2.40;;;;;;;;;;5033179;27;95526;-72
2022/06/15 22:31:56;;;;;;;3.45;2.28;;;;;;;;;;5029554;27;96367;-72
2022/06/15 22:34:23;;;;;;;3.58;2.22;;;;;;;;;;5030280;27;97307;-71
2022/06/15 22:36:49;;;;;;;4.32;2.47;;;;;;;;;;5030138;27;95682;-74
2022/06/15 22:39:15;;;;;;;5.75;2.50;;;;;;;;;;5030213;27;96573;-72
2022/06/15 22:41:42;;;;;;;7.40;2.63;;;;;;;;;;5028288;27;96297;-72
2022/06/15 22:44:08;;;;;;;7.78;2.50;;;;;;;;;;5027670;27;95609;-72
2022/06/15 22:46:35;;;;;;;5.90;2.70;;;;;;;;;;5027839;27;95725;-72
2022/06/15 22:51:46;;;;;;;5.47;2.60;;;;;;;;;;5029522;27;96882;-72
2022/06/15 22:54:13;;;;;;;5.25;2.80;;;;;;;;;;5030207;27;97064;-73
2022/06/15 22:56:40;;;;;;;4.43;2.63;;;;;;;;;;5030473;27;95329;-73
2022/06/15 22:59:06;;;;;;;4.78;3.00;;;;;;;;;;5029764;27;96973;-73
2022/06/15 23:01:34;;;;;;;3.70;2.53;;;;;;;;;;5028830;27;97367;-73
2022/06/15 23:04:03;;;;;;;3.28;2.13;;;;;;;;;;5029880;27;95458;-72
2022/06/15 23:06:29;;;;;;;4.60;2.80;;;;;;;;;;5029778;28;96764;-73
2022/06/15 23:08:56;;;;;;;7.00;3.15;;;;;;;;;;5029822;27;97522;-72
2022/06/15 23:11:22;;;;;;;4.30;2.45;;;;;;;;;;5030269;27;95321;-73
2022/06/15 23:13:48;;;;;;;6.10;2.83;;;;;;;;;;5029517;27;97438;-72
2022/06/15 23:16:15;;;;;;;10.98;3.00;;;;;;;;;;5030120;28;95603;-72
2022/06/15 23:18:42;;;;;;;4.35;2.55;;;;;;;;;;5029125;28;97349;-72
2022/06/15 23:21:08;;;;;;;3.97;2.40;;;;;;;;;;5029475;28;97268;-72
2022/06/15 23:23:34;;;;;;;4.43;2.55;;;;;;;;;;5029012;27;95758;-72
2022/06/15 23:26:01;;;;;;;4.13;2.45;;;;;;;;;;5029836;28;96777;-72
2022/06/15 23:28:27;;;;;;;7.68;2.50;;;;;;;;;;5029566;28;97357;-71
2022/06/15 23:30:54;;;;;;;4.93;2.40;;;;;;;;;;5029930;28;95338;-72
2022/06/15 23:33:21;;;;;;;4.25;2.30;;;;;;;;;;5031258;27;96712;-72
2022/06/15 23:35:48;;;;;;;5.18;2.30;;;;;;;;;;5029768;28;95341;-72
2022/06/15 23:38:16;;;;;;;4.78;2.50;;;;;;;;;;5028418;27;96855;-72
2022/06/15 23:40:43;;;;;;;4.70;2.60;;;;;;;;;;5026802;27;97434;-72
2022/06/15 23:43:10;;;;;;;4.75;2.60;;;;;;;;;;5030252;27;95445;-72
2022/06/15 23:48:21;;;;;;;4.25;2.40;;;;;;;;;;5026932;27;97423;-72
2022/06/15 23:50:48;;;;;;;5.95;2.67;;;;;;;;;;5028184;27;95466;-73
2022/06/15 23:53:17;;;;;;;5.65;2.40;;;;;;;;;;5029925;28;97112;-72
2022/06/15 23:55:44;;;;;;;4.47;2.53;;;;;;;;;;5032103;28;97654;-72
2022/06/15 23:58:11;;;;;;;3.42;2.00;;;;;;;;;;5029329;28;96749;-73
